sensor_id;sensor_type;location;lat;lon;timestamp;P1;durP1;ratioP1;P2;durP2;ratioP2
32333;SDS011;18810;53.040;8.850;2022-07-18T00:01:31;9.18;;;5.35;;
32333;SDS011;18810;53.040;8.850;2022-07-18T00:03:57;6.00;;;4.82;;
32333;SDS011;18810;53.040;8.850;2022-07-18T00:06:23;7.70;;;5.28;;
32333;SDS011;18810;53.040;8.850;2022-07-18T00:08:49;8.13;;;5.43;;
32333;SDS011;18810;53.040;8.850;2022-07-18T00:11:14;9.85;;;5.18;;
32333;SDS011;18810;53.040;8.850;2022-07-18T00:13:41;7.35;;;5.00;;
32333;SDS011;18810;53.040;8.850;2022-07-18T00:16:07;6.55;;;5.35;;
32333;SDS011;18810;53.040;8.850;2022-07-18T00:18:33;10.38;;;5.57;;
32333;SDS011;18810;53.040;8.850;2022-07-18T00:20:59;9.13;;;5.38;;
32333;SDS011;18810;53.040;8.850;2022-07-18T00:23:25;8.27;;;5.13;;
32333;SDS011;18810;53.040;8.850;2022-07-18T00:25:51;6.95;;;5.82;;
32333;SDS011;18810;53.040;8.850;2022-07-18T00:28:17;11.13;;;5.82;;
32333;SDS011;18810;53.040;8.850;2022-07-18T00:30:44;12.13;;;6.15;;
32333;SDS011;18810;53.040;8.850;2022-07-18T00:33:09;10.35;;;5.43;;
32333;SDS011;18810;53.040;8.850;2022-07-18T00:35:35;10.52;;;5.47;;
32333;SDS011;18810;53.040;8.850;2022-07-18T00:38:01;9.95;;;5.50;;
32333;SDS011;18810;53.040;8.850;2022-07-18T00:40:28;10.63;;;6.00;;
32333;SDS011;18810;53.040;8.850;2022-07-18T00:42:54;10.35;;;5.82;;
32333;SDS011;18810;53.040;8.850;2022-07-18T00:45:20;9.48;;;5.25;;
32333;SDS011;18810;53.040;8.850;2022-07-18T00:47:46;9.35;;;5.43;;
32333;SDS011;18810;53.040;8.850;2022-07-18T00:50:12;9.00;;;5.38;;
32333;SDS011;18810;53.040;8.850;2022-07-18T00:52:38;9.40;;;5.65;;
32333;SDS011;18810;53.040;8.850;2022-07-18T00:55:04;10.68;;;5.25;;
32333;SDS011;18810;53.040;8.850;2022-07-18T00:57:31;8.00;;;5.88;;
32333;SDS011;18810;53.040;8.850;2022-07-18T00:59:57;10.88;;;5.75;;
32333;SDS011;18810;53.040;8.850;2022-07-18T01:02:42;9.48;;;5.70;;
32333;SDS011;18810;53.040;8.850;2022-07-18T01:05:08;8.38;;;5.57;;
32333;SDS011;18810;53.040;8.850;2022-07-18T01:07:37;6.63;;;5.25;;
32333;SDS011;18810;53.040;8.850;2022-07-18T01:10:03;9.10;;;4.93;;
32333;SDS011;18810;53.040;8.850;2022-07-18T01:12:30;7.18;;;5.97;;
32333;SDS011;18810;53.040;8.850;2022-07-18T01:14:57;8.80;;;5.53;;
32333;SDS011;18810;53.040;8.850;2022-07-18T01:17:23;7.75;;;6.47;;
32333;SDS011;18810;53.040;8.850;2022-07-18T01:19:49;10.27;;;5.93;;
32333;SDS011;18810;53.040;8.850;2022-07-18T01:22:16;9.30;;;6.25;;
32333;SDS011;18810;53.040;8.850;2022-07-18T01:24:43;9.02;;;6.13;;
32333;SDS011;18810;53.040;8.850;2022-07-18T01:27:13;10.63;;;6.22;;
32333;SDS011;18810;53.040;8.850;2022-07-18T01:29:39;8.53;;;6.60;;
32333;SDS011;18810;53.040;8.850;2022-07-18T01:32:08;8.57;;;6.25;;
32333;SDS011;18810;53.040;8.850;2022-07-18T01:34:35;8.63;;;6.93;;
32333;SDS011;18810;53.040;8.850;2022-07-18T01:37:01;9.93;;;6.40;;
32333;SDS011;18810;53.040;8.850;2022-07-18T01:39:28;12.02;;;6.93;;
32333;SDS011;18810;53.040;8.850;2022-07-18T01:42:05;9.77;;;7.25;;
32333;SDS011;18810;53.040;8.850;2022-07-18T01:44:32;10.63;;;6.80;;
32333;SDS011;18810;53.040;8.850;2022-07-18T01:46:59;13.13;;;7.40;;
32333;SDS011;18810;53.040;8.850;2022-07-18T01:49:26;13.13;;;6.80;;
32333;SDS011;18810;53.040;8.850;2022-07-18T01:51:53;12.32;;;7.07;;
32333;SDS011;18810;53.040;8.850;2022-07-18T01:54:23;12.25;;;7.00;;
32333;SDS011;18810;53.040;8.850;2022-07-18T01:56:50;9.68;;;6.75;;
32333;SDS011;18810;53.040;8.850;2022-07-18T01:59:16;10.23;;;7.00;;
32333;SDS011;18810;53.040;8.850;2022-07-18T02:01:43;9.68;;;6.32;;
32333;SDS011;18810;53.040;8.850;2022-07-18T02:04:09;7.88;;;6.38;;
32333;SDS011;18810;53.040;8.850;2022-07-18T02:06:35;8.82;;;6.28;;
32333;SDS011;18810;53.040;8.850;2022-07-18T02:09:00;7.55;;;6.32;;
32333;SDS011;18810;53.040;8.850;2022-07-18T02:11:26;9.63;;;6.85;;
32333;SDS011;18810;53.040;8.850;2022-07-18T02:13:52;9.20;;;6.18;;
32333;SDS011;18810;53.040;8.850;2022-07-18T02:16:18;10.02;;;6.43;;
32333;SDS011;18810;53.040;8.850;2022-07-18T02:18:43;7.65;;;5.90;;
32333;SDS011;18810;53.040;8.850;2022-07-18T02:21:10;9.80;;;6.28;;
32333;SDS011;18810;53.040;8.850;2022-07-18T02:23:36;7.85;;;6.10;;
32333;SDS011;18810;53.040;8.850;2022-07-18T02:26:02;7.38;;;6.03;;
32333;SDS011;18810;53.040;8.850;2022-07-18T02:28:29;9.57;;;5.88;;
32333;SDS011;18810;53.040;8.850;2022-07-18T02:30:54;13.38;;;6.32;;
32333;SDS011;18810;53.040;8.850;2022-07-18T02:33:20;9.25;;;6.10;;
32333;SDS011;18810;53.040;8.850;2022-07-18T02:35:46;9.55;;;6.30;;
32333;SDS011;18810;53.040;8.850;2022-07-18T02:38:12;8.10;;;6.13;;
32333;SDS011;18810;53.040;8.850;2022-07-18T02:40:38;11.48;;;6.38;;
32333;SDS011;18810;53.040;8.850;2022-07-18T02:43:04;10.23;;;6.28;;
32333;SDS011;18810;53.040;8.850;2022-07-18T02:45:30;9.00;;;6.90;;
32333;SDS011;18810;53.040;8.850;2022-07-18T02:47:56;10.43;;;7.18;;
32333;SDS011;18810;53.040;8.850;2022-07-18T02:50:22;8.85;;;6.60;;
32333;SDS011;18810;53.040;8.850;2022-07-18T02:52:48;10.75;;;6.57;;
32333;SDS011;18810;53.040;8.850;2022-07-18T02:55:15;11.63;;;7.05;;
32333;SDS011;18810;53.040;8.850;2022-07-18T02:57:41;8.50;;;6.25;;
32333;SDS011;18810;53.040;8.850;2022-07-18T03:00:08;11.77;;;6.63;;
32333;SDS011;18810;53.040;8.850;2022-07-18T03:02:36;9.93;;;6.78;;
32333;SDS011;18810;53.040;8.850;2022-07-18T03:05:03;8.70;;;6.75;;
32333;SDS011;18810;53.040;8.850;2022-07-18T03:07:29;10.68;;;6.50;;
32333;SDS011;18810;53.040;8.850;2022-07-18T03:09:55;9.65;;;6.30;;
32333;SDS011;18810;53.040;8.850;2022-07-18T03:12:21;10.38;;;6.88;;
32333;SDS011;18810;53.040;8.850;2022-07-18T03:14:47;9.50;;;6.65;;
32333;SDS011;18810;53.040;8.850;2022-07-18T03:17:13;10.73;;;6.65;;
32333;SDS011;18810;53.040;8.850;2022-07-18T03:19:39;8.48;;;6.72;;
32333;SDS011;18810;53.040;8.850;2022-07-18T03:22:05;12.32;;;7.35;;
32333;SDS011;18810;53.040;8.850;2022-07-18T03:24:31;8.45;;;6.55;;
32333;SDS011;18810;53.040;8.850;2022-07-18T03:26:57;10.63;;;7.25;;
32333;SDS011;18810;53.040;8.850;2022-07-18T03:29:23;8.05;;;6.57;;
32333;SDS011;18810;53.040;8.850;2022-07-18T03:31:50;9.77;;;6.90;;
32333;SDS011;18810;53.040;8.850;2022-07-18T03:34:16;9.00;;;6.43;;
32333;SDS011;18810;53.040;8.850;2022-07-18T03:36:42;9.60;;;6.78;;
32333;SDS011;18810;53.040;8.850;2022-07-18T03:39:08;11.65;;;6.32;;
32333;SDS011;18810;53.040;8.850;2022-07-18T03:41:34;11.13;;;6.72;;
32333;SDS011;18810;53.040;8.850;2022-07-18T03:44:01;7.97;;;6.60;;
32333;SDS011;18810;53.040;8.850;2022-07-18T03:46:27;11.63;;;6.72;;
32333;SDS011;18810;53.040;8.850;2022-07-18T03:48:53;7.85;;;6.38;;
32333;SDS011;18810;53.040;8.850;2022-07-18T03:51:18;10.18;;;6.97;;
32333;SDS011;18810;53.040;8.850;2022-07-18T03:53:44;10.40;;;6.65;;
32333;SDS011;18810;53.040;8.850;2022-07-18T03:56:10;11.85;;;6.60;;
32333;SDS011;18810;53.040;8.850;2022-07-18T03:58:36;8.02;;;6.15;;
32333;SDS011;18810;53.040;8.850;2022-07-18T04:01:02;10.20;;;6.32;;
32333;SDS011;18810;53.040;8.850;2022-07-18T04:03:28;9.93;;;6.72;;
32333;SDS011;18810;53.040;8.850;2022-07-18T04:05:54;8.15;;;6.25;;
32333;SDS011;18810;53.040;8.850;2022-07-18T04:08:20;10.75;;;6.05;;
32333;SDS011;18810;53.040;8.850;2022-07-18T04:10:46;10.05;;;6.00;;
32333;SDS011;18810;53.040;8.850;2022-07-18T04:13:12;7.20;;;6.28;;
32333;SDS011;18810;53.040;8.850;2022-07-18T04:15:40;11.23;;;6.22;;
32333;SDS011;18810;53.040;8.850;2022-07-18T04:18:06;12.25;;;7.00;;
32333;SDS011;18810;53.040;8.850;2022-07-18T04:20:33;6.35;;;5.30;;
32333;SDS011;18810;53.040;8.850;2022-07-18T04:23:01;10.27;;;6.47;;
32333;SDS011;18810;53.040;8.850;2022-07-18T04:25:32;10.35;;;6.25;;
32333;SDS011;18810;53.040;8.850;2022-07-18T04:28:00;10.20;;;6.07;;
32333;SDS011;18810;53.040;8.850;2022-07-18T04:30:26;9.35;;;6.55;;
32333;SDS011;18810;53.040;8.850;2022-07-18T04:32:53;10.38;;;6.55;;
32333;SDS011;18810;53.040;8.850;2022-07-18T04:35:19;7.70;;;6.00;;
32333;SDS011;18810;53.040;8.850;2022-07-18T04:37:47;13.38;;;6.22;;
32333;SDS011;18810;53.040;8.850;2022-07-18T04:40:13;10.07;;;6.22;;
32333;SDS011;18810;53.040;8.850;2022-07-18T04:42:40;13.77;;;6.03;;
32333;SDS011;18810;53.040;8.850;2022-07-18T04:45:06;9.00;;;5.70;;
32333;SDS011;18810;53.040;8.850;2022-07-18T04:47:33;9.38;;;6.57;;
32333;SDS011;18810;53.040;8.850;2022-07-18T04:49:59;11.25;;;6.38;;
32333;SDS011;18810;53.040;8.850;2022-07-18T04:52:25;11.27;;;6.35;;
32333;SDS011;18810;53.040;8.850;2022-07-18T04:54:50;11.80;;;6.65;;
32333;SDS011;18810;53.040;8.850;2022-07-18T04:57:16;8.32;;;6.25;;
32333;SDS011;18810;53.040;8.850;2022-07-18T04:59:43;12.05;;;6.63;;
32333;SDS011;18810;53.040;8.850;2022-07-18T05:02:10;14.15;;;6.60;;
32333;SDS011;18810;53.040;8.850;2022-07-18T05:04:37;14.45;;;5.82;;
32333;SDS011;18810;53.040;8.850;2022-07-18T05:07:04;16.23;;;6.93;;
32333;SDS011;18810;53.040;8.850;2022-07-18T05:09:31;13.02;;;5.80;;
32333;SDS011;18810;53.040;8.850;2022-07-18T05:11:57;15.68;;;6.03;;
32333;SDS011;18810;53.040;8.850;2022-07-18T05:14:23;14.60;;;6.68;;
32333;SDS011;18810;53.040;8.850;2022-07-18T05:16:48;13.82;;;5.70;;
32333;SDS011;18810;53.040;8.850;2022-07-18T05:19:14;10.82;;;6.05;;
32333;SDS011;18810;53.040;8.850;2022-07-18T05:21:41;11.73;;;5.68;;
32333;SDS011;18810;53.040;8.850;2022-07-18T05:24:07;8.52;;;5.10;;
32333;SDS011;18810;53.040;8.850;2022-07-18T05:26:33;14.20;;;6.07;;
32333;SDS011;18810;53.040;8.850;2022-07-18T05:28:59;11.98;;;5.50;;
32333;SDS011;18810;53.040;8.850;2022-07-18T05:31:25;13.80;;;6.35;;
32333;SDS011;18810;53.040;8.850;2022-07-18T05:33:50;9.68;;;4.85;;
32333;SDS011;18810;53.040;8.850;2022-07-18T05:36:16;9.55;;;5.22;;
32333;SDS011;18810;53.040;8.850;2022-07-18T05:38:42;14.05;;;5.90;;
32333;SDS011;18810;53.040;8.850;2022-07-18T05:41:08;7.15;;;5.13;;
32333;SDS011;18810;53.040;8.850;2022-07-18T05:43:34;6.25;;;5.25;;
32333;SDS011;18810;53.040;8.850;2022-07-18T05:46:00;7.35;;;5.10;;
32333;SDS011;18810;53.040;8.850;2022-07-18T05:48:26;12.45;;;5.18;;
32333;SDS011;18810;53.040;8.850;2022-07-18T05:50:52;12.00;;;5.32;;
32333;SDS011;18810;53.040;8.850;2022-07-18T05:53:18;9.68;;;4.82;;
32333;SDS011;18810;53.040;8.850;2022-07-18T05:55:45;7.32;;;4.65;;
32333;SDS011;18810;53.040;8.850;2022-07-18T05:58:11;12.65;;;4.78;;
32333;SDS011;18810;53.040;8.850;2022-07-18T06:00:37;9.32;;;4.57;;
32333;SDS011;18810;53.040;8.850;2022-07-18T06:03:03;10.70;;;5.22;;
32333;SDS011;18810;53.040;8.850;2022-07-18T06:05:29;7.72;;;4.90;;
32333;SDS011;18810;53.040;8.850;2022-07-18T06:07:55;7.85;;;4.65;;
32333;SDS011;18810;53.040;8.850;2022-07-18T06:10:22;7.10;;;4.50;;
32333;SDS011;18810;53.040;8.850;2022-07-18T06:12:52;8.88;;;4.35;;
32333;SDS011;18810;53.040;8.850;2022-07-18T06:15:19;7.18;;;4.93;;
32333;SDS011;18810;53.040;8.850;2022-07-18T06:17:45;5.95;;;4.40;;
32333;SDS011;18810;53.040;8.850;2022-07-18T06:20:11;8.75;;;4.68;;
32333;SDS011;18810;53.040;8.850;2022-07-18T06:22:37;6.80;;;4.70;;
32333;SDS011;18810;53.040;8.850;2022-07-18T06:25:04;6.80;;;4.13;;
32333;SDS011;18810;53.040;8.850;2022-07-18T06:27:30;8.15;;;4.60;;
32333;SDS011;18810;53.040;8.850;2022-07-18T06:29:56;6.57;;;4.72;;
32333;SDS011;18810;53.040;8.850;2022-07-18T06:32:24;5.78;;;4.40;;
32333;SDS011;18810;53.040;8.850;2022-07-18T06:34:50;5.43;;;4.25;;
32333;SDS011;18810;53.040;8.850;2022-07-18T06:37:16;7.82;;;4.00;;
32333;SDS011;18810;53.040;8.850;2022-07-18T06:39:42;7.25;;;3.92;;
32333;SDS011;18810;53.040;8.850;2022-07-18T06:42:08;8.52;;;4.28;;
32333;SDS011;18810;53.040;8.850;2022-07-18T06:44:34;6.35;;;4.22;;
32333;SDS011;18810;53.040;8.850;2022-07-18T06:47:00;9.30;;;3.78;;
32333;SDS011;18810;53.040;8.850;2022-07-18T06:49:26;7.32;;;4.10;;
32333;SDS011;18810;53.040;8.850;2022-07-18T06:51:52;6.93;;;3.83;;
32333;SDS011;18810;53.040;8.850;2022-07-18T06:54:17;8.25;;;3.83;;
32333;SDS011;18810;53.040;8.850;2022-07-18T06:56:45;7.03;;;3.70;;
32333;SDS011;18810;53.040;8.850;2022-07-18T06:59:11;8.18;;;3.53;;
32333;SDS011;18810;53.040;8.850;2022-07-18T07:01:36;11.85;;;3.78;;
32333;SDS011;18810;53.040;8.850;2022-07-18T07:04:02;7.97;;;3.85;;
32333;SDS011;18810;53.040;8.850;2022-07-18T07:06:28;10.93;;;4.05;;
32333;SDS011;18810;53.040;8.850;2022-07-18T07:08:54;6.68;;;3.60;;
32333;SDS011;18810;53.040;8.850;2022-07-18T07:11:20;8.02;;;3.67;;
32333;SDS011;18810;53.040;8.850;2022-07-18T07:13:47;6.00;;;3.63;;
32333;SDS011;18810;53.040;8.850;2022-07-18T07:16:13;6.05;;;3.88;;
32333;SDS011;18810;53.040;8.850;2022-07-18T07:18:39;6.38;;;3.47;;
32333;SDS011;18810;53.040;8.850;2022-07-18T07:21:06;5.82;;;3.40;;
32333;SDS011;18810;53.040;8.850;2022-07-18T07:23:33;4.97;;;3.05;;
32333;SDS011;18810;53.040;8.850;2022-07-18T07:25:58;3.97;;;2.63;;
32333;SDS011;18810;53.040;8.850;2022-07-18T07:28:24;7.32;;;3.35;;
32333;SDS011;18810;53.040;8.850;2022-07-18T07:30:50;5.43;;;2.97;;
32333;SDS011;18810;53.040;8.850;2022-07-18T07:33:16;2.90;;;2.50;;
32333;SDS011;18810;53.040;8.850;2022-07-18T07:35:42;8.02;;;3.00;;
32333;SDS011;18810;53.040;8.850;2022-07-18T07:38:08;4.45;;;2.60;;
32333;SDS011;18810;53.040;8.850;2022-07-18T07:40:34;5.72;;;2.47;;
32333;SDS011;18810;53.040;8.850;2022-07-18T07:43:07;5.10;;;2.67;;
32333;SDS011;18810;53.040;8.850;2022-07-18T07:45:34;5.65;;;2.90;;
32333;SDS011;18810;53.040;8.850;2022-07-18T07:48:00;4.85;;;2.90;;
32333;SDS011;18810;53.040;8.850;2022-07-18T07:50:26;7.13;;;2.92;;
32333;SDS011;18810;53.040;8.850;2022-07-18T07:52:52;8.25;;;3.05;;
32333;SDS011;18810;53.040;8.850;2022-07-18T07:55:18;5.80;;;2.80;;
32333;SDS011;18810;53.040;8.850;2022-07-18T07:57:44;5.50;;;2.75;;
32333;SDS011;18810;53.040;8.850;2022-07-18T08:00:09;5.60;;;2.28;;
32333;SDS011;18810;53.040;8.850;2022-07-18T08:02:35;3.78;;;2.42;;
32333;SDS011;18810;53.040;8.850;2022-07-18T08:05:02;4.93;;;2.42;;
32333;SDS011;18810;53.040;8.850;2022-07-18T08:07:28;3.35;;;2.00;;
32333;SDS011;18810;53.040;8.850;2022-07-18T08:09:54;7.07;;;2.50;;
32333;SDS011;18810;53.040;8.850;2022-07-18T08:12:19;4.93;;;2.33;;
32333;SDS011;18810;53.040;8.850;2022-07-18T08:14:45;2.55;;;2.17;;
32333;SDS011;18810;53.040;8.850;2022-07-18T08:17:11;4.22;;;2.20;;
32333;SDS011;18810;53.040;8.850;2022-07-18T08:19:36;4.38;;;2.15;;
32333;SDS011;18810;53.040;8.850;2022-07-18T08:22:02;4.50;;;2.17;;
32333;SDS011;18810;53.040;8.850;2022-07-18T08:24:28;5.43;;;2.20;;
32333;SDS011;18810;53.040;8.850;2022-07-18T08:26:54;3.35;;;2.20;;
32333;SDS011;18810;53.040;8.850;2022-07-18T08:29:20;5.05;;;2.28;;
32333;SDS011;18810;53.040;8.850;2022-07-18T08:31:45;4.82;;;2.00;;
32333;SDS011;18810;53.040;8.850;2022-07-18T08:34:12;5.70;;;2.90;;
32333;SDS011;18810;53.040;8.850;2022-07-18T08:36:37;5.03;;;2.35;;
32333;SDS011;18810;53.040;8.850;2022-07-18T08:39:03;3.58;;;2.45;;
32333;SDS011;18810;53.040;8.850;2022-07-18T08:41:29;7.07;;;2.88;;
32333;SDS011;18810;53.040;8.850;2022-07-18T08:43:55;6.18;;;3.42;;
32333;SDS011;18810;53.040;8.850;2022-07-18T08:46:21;4.13;;;2.40;;
32333;SDS011;18810;53.040;8.850;2022-07-18T08:48:48;4.43;;;2.38;;
32333;SDS011;18810;53.040;8.850;2022-07-18T08:51:14;8.60;;;3.15;;
32333;SDS011;18810;53.040;8.850;2022-07-18T08:53:40;7.80;;;2.78;;
32333;SDS011;18810;53.040;8.850;2022-07-18T08:56:06;6.55;;;3.60;;
32333;SDS011;18810;53.040;8.850;2022-07-18T08:58:32;6.75;;;3.20;;
32333;SDS011;18810;53.040;8.850;2022-07-18T09:00:58;4.65;;;3.05;;
32333;SDS011;18810;53.040;8.850;2022-07-18T09:03:24;5.47;;;2.88;;
32333;SDS011;18810;53.040;8.850;2022-07-18T09:08:28;5.47;;;3.80;;
32333;SDS011;18810;53.040;8.850;2022-07-18T09:10:56;5.20;;;4.30;;
32333;SDS011;18810;53.040;8.850;2022-07-18T09:13:45;4.88;;;3.50;;
32333;SDS011;18810;53.040;8.850;2022-07-18T09:16:11;4.80;;;3.40;;
32333;SDS011;18810;53.040;8.850;2022-07-18T09:18:39;4.63;;;3.63;;
32333;SDS011;18810;53.040;8.850;2022-07-18T09:21:13;4.82;;;3.38;;
32333;SDS011;18810;53.040;8.850;2022-07-18T09:23:43;5.90;;;4.53;;
32333;SDS011;18810;53.040;8.850;2022-07-18T09:26:13;6.70;;;4.60;;
32333;SDS011;18810;53.040;8.850;2022-07-18T09:29:05;6.25;;;4.35;;
32333;SDS011;18810;53.040;8.850;2022-07-18T09:31:32;6.32;;;3.83;;
32333;SDS011;18810;53.040;8.850;2022-07-18T09:33:58;7.47;;;4.38;;
32333;SDS011;18810;53.040;8.850;2022-07-18T09:36:25;7.25;;;3.78;;
32333;SDS011;18810;53.040;8.850;2022-07-18T09:38:52;4.28;;;3.53;;
32333;SDS011;18810;53.040;8.850;2022-07-18T09:41:22;5.90;;;4.78;;
32333;SDS011;18810;53.040;8.850;2022-07-18T09:43:52;6.22;;;5.10;;
32333;SDS011;18810;53.040;8.850;2022-07-18T09:46:18;5.50;;;4.88;;
32333;SDS011;18810;53.040;8.850;2022-07-18T09:48:44;5.47;;;4.10;;
32333;SDS011;18810;53.040;8.850;2022-07-18T09:51:09;6.15;;;3.78;;
32333;SDS011;18810;53.040;8.850;2022-07-18T09:53:39;5.22;;;4.10;;
32333;SDS011;18810;53.040;8.850;2022-07-18T09:56:10;6.95;;;5.07;;
32333;SDS011;18810;53.040;8.850;2022-07-18T09:58:38;8.77;;;5.80;;
32333;SDS011;18810;53.040;8.850;2022-07-18T10:01:15;7.75;;;6.15;;
32333;SDS011;18810;53.040;8.850;2022-07-18T10:03:40;7.72;;;6.05;;
32333;SDS011;18810;53.040;8.850;2022-07-18T10:06:06;7.35;;;6.25;;
32333;SDS011;18810;53.040;8.850;2022-07-18T10:08:33;7.18;;;5.93;;
32333;SDS011;18810;53.040;8.850;2022-07-18T10:11:00;7.93;;;6.53;;
32333;SDS011;18810;53.040;8.850;2022-07-18T10:13:27;7.40;;;6.30;;
32333;SDS011;18810;53.040;8.850;2022-07-18T10:15:55;9.32;;;5.93;;
32333;SDS011;18810;53.040;8.850;2022-07-18T10:18:23;8.02;;;6.93;;
32333;SDS011;18810;53.040;8.850;2022-07-18T10:20:56;7.78;;;6.97;;
32333;SDS011;18810;53.040;8.850;2022-07-18T10:23:44;12.57;;;6.38;;
32333;SDS011;18810;53.040;8.850;2022-07-18T10:26:12;8.48;;;6.35;;
32333;SDS011;18810;53.040;8.850;2022-07-18T10:31:21;8.50;;;6.80;;
32333;SDS011;18810;53.040;8.850;2022-07-18T10:33:48;7.78;;;6.97;;
32333;SDS011;18810;53.040;8.850;2022-07-18T10:36:21;8.70;;;7.47;;
32333;SDS011;18810;53.040;8.850;2022-07-18T10:47:12;7.95;;;6.00;;
32333;SDS011;18810;53.040;8.850;2022-07-18T10:57:31;8.48;;;7.30;;
32333;SDS011;18810;53.040;8.850;2022-07-18T11:02:30;8.82;;;6.82;;
32333;SDS011;18810;53.040;8.850;2022-07-18T11:05:00;6.55;;;5.85;;
32333;SDS011;18810;53.040;8.850;2022-07-18T11:07:26;7.72;;;6.15;;
32333;SDS011;18810;53.040;8.850;2022-07-18T11:09:52;9.13;;;7.25;;
32333;SDS011;18810;53.040;8.850;2022-07-18T11:15:10;9.32;;;6.93;;
32333;SDS011;18810;53.040;8.850;2022-07-18T11:20:41;8.85;;;6.97;;
32333;SDS011;18810;53.040;8.850;2022-07-18T11:23:26;9.68;;;6.70;;
32333;SDS011;18810;53.040;8.850;2022-07-18T11:25:56;9.73;;;7.32;;
32333;SDS011;18810;53.040;8.850;2022-07-18T11:28:26;8.93;;;7.00;;
32333;SDS011;18810;53.040;8.850;2022-07-18T11:31:03;10.57;;;6.53;;
32333;SDS011;18810;53.040;8.850;2022-07-18T11:33:31;9.45;;;6.82;;
32333;SDS011;18810;53.040;8.850;2022-07-18T11:36:06;9.40;;;7.28;;
32333;SDS011;18810;53.040;8.850;2022-07-18T11:38:33;8.00;;;6.65;;
32333;SDS011;18810;53.040;8.850;2022-07-18T11:41:03;7.93;;;7.13;;
32333;SDS011;18810;53.040;8.850;2022-07-18T11:43:29;7.83;;;7.00;;
32333;SDS011;18810;53.040;8.850;2022-07-18T11:48:28;9.90;;;6.93;;
32333;SDS011;18810;53.040;8.850;2022-07-18T11:50:54;7.15;;;6.40;;
32333;SDS011;18810;53.040;8.850;2022-07-18T11:53:20;6.82;;;6.07;;
32333;SDS011;18810;53.040;8.850;2022-07-18T11:55:46;8.63;;;6.22;;
32333;SDS011;18810;53.040;8.850;2022-07-18T11:58:14;7.05;;;5.70;;
32333;SDS011;18810;53.040;8.850;2022-07-18T12:00:41;8.63;;;5.95;;
32333;SDS011;18810;53.040;8.850;2022-07-18T12:05:40;7.30;;;5.30;;
32333;SDS011;18810;53.040;8.850;2022-07-18T12:08:26;6.18;;;5.30;;
32333;SDS011;18810;53.040;8.850;2022-07-18T12:13:50;6.18;;;5.00;;
32333;SDS011;18810;53.040;8.850;2022-07-18T12:16:36;6.35;;;5.05;;
32333;SDS011;18810;53.040;8.850;2022-07-18T12:19:12;7.30;;;4.90;;
32333;SDS011;18810;53.040;8.850;2022-07-18T12:21:42;6.85;;;4.82;;
32333;SDS011;18810;53.040;8.850;2022-07-18T12:32:28;7.18;;;5.05;;
32333;SDS011;18810;53.040;8.850;2022-07-18T12:35:22;6.55;;;5.38;;
32333;SDS011;18810;53.040;8.850;2022-07-18T12:37:56;7.00;;;5.07;;
32333;SDS011;18810;53.040;8.850;2022-07-18T12:45:47;6.20;;;4.65;;
32333;SDS011;18810;53.040;8.850;2022-07-18T12:48:13;5.05;;;4.55;;
32333;SDS011;18810;53.040;8.850;2022-07-18T12:50:39;5.47;;;4.72;;
32333;SDS011;18810;53.040;8.850;2022-07-18T12:53:06;5.13;;;4.68;;
32333;SDS011;18810;53.040;8.850;2022-07-18T12:55:32;6.10;;;4.68;;
32333;SDS011;18810;53.040;8.850;2022-07-18T12:57:59;5.03;;;4.47;;
32333;SDS011;18810;53.040;8.850;2022-07-18T13:00:25;5.95;;;4.80;;
32333;SDS011;18810;53.040;8.850;2022-07-18T13:02:52;5.50;;;4.90;;
32333;SDS011;18810;53.040;8.850;2022-07-18T13:05:20;5.43;;;4.93;;
32333;SDS011;18810;53.040;8.850;2022-07-18T13:07:47;5.13;;;4.50;;
32333;SDS011;18810;53.040;8.850;2022-07-18T13:10:13;6.22;;;5.13;;
32333;SDS011;18810;53.040;8.850;2022-07-18T13:12:39;6.63;;;5.03;;
32333;SDS011;18810;53.040;8.850;2022-07-18T13:15:05;5.68;;;5.07;;
32333;SDS011;18810;53.040;8.850;2022-07-18T13:17:31;5.32;;;4.53;;
32333;SDS011;18810;53.040;8.850;2022-07-18T13:19:56;6.43;;;4.93;;
32333;SDS011;18810;53.040;8.850;2022-07-18T13:22:22;5.38;;;4.88;;
32333;SDS011;18810;53.040;8.850;2022-07-18T13:24:48;5.50;;;4.97;;
32333;SDS011;18810;53.040;8.850;2022-07-18T13:27:14;5.68;;;4.93;;
32333;SDS011;18810;53.040;8.850;2022-07-18T13:29:39;5.22;;;4.72;;
32333;SDS011;18810;53.040;8.850;2022-07-18T13:32:05;5.20;;;4.70;;
32333;SDS011;18810;53.040;8.850;2022-07-18T13:34:31;6.65;;;5.03;;
32333;SDS011;18810;53.040;8.850;2022-07-18T13:36:57;9.68;;;5.10;;
32333;SDS011;18810;53.040;8.850;2022-07-18T13:39:22;5.50;;;4.72;;
32333;SDS011;18810;53.040;8.850;2022-07-18T13:41:48;5.18;;;4.45;;
32333;SDS011;18810;53.040;8.850;2022-07-18T13:44:15;8.20;;;5.30;;
32333;SDS011;18810;53.040;8.850;2022-07-18T13:46:41;5.95;;;5.03;;
32333;SDS011;18810;53.040;8.850;2022-07-18T13:49:08;5.43;;;4.47;;
32333;SDS011;18810;53.040;8.850;2022-07-18T13:51:36;5.43;;;4.43;;
32333;SDS011;18810;53.040;8.850;2022-07-18T13:54:03;4.78;;;3.90;;
32333;SDS011;18810;53.040;8.850;2022-07-18T13:56:30;4.30;;;3.90;;
32333;SDS011;18810;53.040;8.850;2022-07-18T13:58:56;4.75;;;4.03;;
32333;SDS011;18810;53.040;8.850;2022-07-18T14:01:21;6.38;;;4.28;;
32333;SDS011;18810;53.040;8.850;2022-07-18T14:03:47;4.20;;;3.80;;
32333;SDS011;18810;53.040;8.850;2022-07-18T14:06:13;5.28;;;4.00;;
32333;SDS011;18810;53.040;8.850;2022-07-18T14:08:39;5.22;;;3.63;;
32333;SDS011;18810;53.040;8.850;2022-07-18T14:11:05;6.97;;;4.22;;
32333;SDS011;18810;53.040;8.850;2022-07-18T14:13:31;6.28;;;4.22;;
32333;SDS011;18810;53.040;8.850;2022-07-18T14:15:57;5.30;;;4.15;;
32333;SDS011;18810;53.040;8.850;2022-07-18T14:18:22;4.40;;;4.00;;
32333;SDS011;18810;53.040;8.850;2022-07-18T14:20:48;5.82;;;4.30;;
32333;SDS011;18810;53.040;8.850;2022-07-18T14:23:14;4.93;;;4.28;;
32333;SDS011;18810;53.040;8.850;2022-07-18T14:25:39;8.07;;;4.25;;
32333;SDS011;18810;53.040;8.850;2022-07-18T14:28:05;8.52;;;4.43;;
32333;SDS011;18810;53.040;8.850;2022-07-18T14:30:32;4.93;;;4.43;;
32333;SDS011;18810;53.040;8.850;2022-07-18T14:32:58;5.78;;;3.90;;
32333;SDS011;18810;53.040;8.850;2022-07-18T14:35:23;4.47;;;4.07;;
32333;SDS011;18810;53.040;8.850;2022-07-18T14:37:49;5.20;;;4.10;;
32333;SDS011;18810;53.040;8.850;2022-07-18T14:40:15;5.60;;;4.28;;
32333;SDS011;18810;53.040;8.850;2022-07-18T14:42:41;6.20;;;4.50;;
32333;SDS011;18810;53.040;8.850;2022-07-18T14:45:07;6.10;;;4.47;;
32333;SDS011;18810;53.040;8.850;2022-07-18T14:47:33;6.53;;;4.13;;
32333;SDS011;18810;53.040;8.850;2022-07-18T14:50:00;4.68;;;3.97;;
32333;SDS011;18810;53.040;8.850;2022-07-18T14:52:28;4.65;;;4.25;;
32333;SDS011;18810;53.040;8.850;2022-07-18T14:54:54;5.00;;;4.25;;
32333;SDS011;18810;53.040;8.850;2022-07-18T14:57:19;5.35;;;3.85;;
32333;SDS011;18810;53.040;8.850;2022-07-18T14:59:45;7.07;;;4.13;;
32333;SDS011;18810;53.040;8.850;2022-07-18T15:02:11;4.53;;;4.13;;
32333;SDS011;18810;53.040;8.850;2022-07-18T15:04:38;5.07;;;3.50;;
32333;SDS011;18810;53.040;8.850;2022-07-18T15:07:03;4.57;;;4.00;;
32333;SDS011;18810;53.040;8.850;2022-07-18T15:09:29;5.43;;;4.30;;
32333;SDS011;18810;53.040;8.850;2022-07-18T15:11:55;6.95;;;4.00;;
32333;SDS011;18810;53.040;8.850;2022-07-18T15:14:21;4.70;;;4.13;;
32333;SDS011;18810;53.040;8.850;2022-07-18T15:16:47;4.95;;;3.90;;
32333;SDS011;18810;53.040;8.850;2022-07-18T15:19:12;5.88;;;4.20;;
32333;SDS011;18810;53.040;8.850;2022-07-18T15:21:38;4.72;;;4.20;;
32333;SDS011;18810;53.040;8.850;2022-07-18T15:24:04;4.50;;;4.05;;
32333;SDS011;18810;53.040;8.850;2022-07-18T15:26:30;4.07;;;3.67;;
32333;SDS011;18810;53.040;8.850;2022-07-18T15:28:55;4.45;;;4.05;;
32333;SDS011;18810;53.040;8.850;2022-07-18T15:31:21;4.10;;;3.70;;
32333;SDS011;18810;53.040;8.850;2022-07-18T15:33:47;4.28;;;3.88;;
32333;SDS011;18810;53.040;8.850;2022-07-18T15:36:12;4.65;;;3.70;;